sensor_id;sensor_type;location;lat;lon;timestamp;P1;durP1;ratioP1;P2;durP2;ratioP2
56363;SDS011;42261;52.094;4.326;2022-08-30T00:02:36;3.53;;;1.85;;
56363;SDS011;42261;52.094;4.326;2022-08-30T00:05:22;4.18;;;1.90;;
56363;SDS011;42261;52.094;4.326;2022-08-30T00:08:07;6.43;;;1.77;;
56363;SDS011;42261;52.094;4.326;2022-08-30T00:10:57;5.78;;;2.15;;
56363;SDS011;42261;52.094;4.326;2022-08-30T00:13:42;4.95;;;1.88;;
56363;SDS011;42261;52.094;4.326;2022-08-30T00:16:28;3.80;;;1.52;;
56363;SDS011;42261;52.094;4.326;2022-08-30T00:19:12;4.93;;;1.83;;
56363;SDS011;42261;52.094;4.326;2022-08-30T00:21:56;3.08;;;1.60;;
56363;SDS011;42261;52.094;4.326;2022-08-30T00:24:41;4.65;;;1.45;;
56363;SDS011;42261;52.094;4.326;2022-08-30T00:27:26;3.10;;;1.45;;
56363;SDS011;42261;52.094;4.326;2022-08-30T00:30:12;9.25;;;1.90;;
56363;SDS011;42261;52.094;4.326;2022-08-30T00:32:57;7.85;;;1.58;;
56363;SDS011;42261;52.094;4.326;2022-08-30T00:35:43;2.53;;;1.58;;
56363;SDS011;42261;52.094;4.326;2022-08-30T00:38:27;7.07;;;1.67;;
56363;SDS011;42261;52.094;4.326;2022-08-30T00:41:12;4.82;;;1.35;;
56363;SDS011;42261;52.094;4.326;2022-08-30T00:43:56;4.35;;;1.60;;
56363;SDS011;42261;52.094;4.326;2022-08-30T00:46:42;7.13;;;1.60;;
56363;SDS011;42261;52.094;4.326;2022-08-30T00:49:26;3.47;;;1.63;;
56363;SDS011;42261;52.094;4.326;2022-08-30T00:52:11;4.30;;;1.52;;
56363;SDS011;42261;52.094;4.326;2022-08-30T00:54:55;3.10;;;1.20;;
56363;SDS011;42261;52.094;4.326;2022-08-30T00:57:40;3.90;;;1.67;;
56363;SDS011;42261;52.094;4.326;2022-08-30T01:00:26;4.68;;;1.60;;
56363;SDS011;42261;52.094;4.326;2022-08-30T01:03:10;3.38;;;1.50;;
56363;SDS011;42261;52.094;4.326;2022-08-30T01:05:55;4.30;;;1.70;;
56363;SDS011;42261;52.094;4.326;2022-08-30T01:08:40;10.02;;;2.60;;
56363;SDS011;42261;52.094;4.326;2022-08-30T01:11:25;6.60;;;1.60;;
56363;SDS011;42261;52.094;4.326;2022-08-30T01:14:11;3.30;;;1.60;;
56363;SDS011;42261;52.094;4.326;2022-08-30T01:16:56;5.80;;;1.75;;
56363;SDS011;42261;52.094;4.326;2022-08-30T01:19:43;2.15;;;1.40;;
56363;SDS011;42261;52.094;4.326;2022-08-30T01:25:34;3.30;;;1.45;;
56363;SDS011;42261;52.094;4.326;2022-08-30T01:28:20;5.05;;;1.60;;
56363;SDS011;42261;52.094;4.326;2022-08-30T01:31:07;5.28;;;1.75;;
56363;SDS011;42261;52.094;4.326;2022-08-30T01:33:52;5.00;;;1.70;;
56363;SDS011;42261;52.094;4.326;2022-08-30T01:36:37;4.13;;;1.65;;
56363;SDS011;42261;52.094;4.326;2022-08-30T01:39:21;3.13;;;1.75;;
56363;SDS011;42261;52.094;4.326;2022-08-30T01:42:07;6.05;;;1.98;;
56363;SDS011;42261;52.094;4.326;2022-08-30T01:44:50;3.50;;;1.55;;
56363;SDS011;42261;52.094;4.326;2022-08-30T01:47:35;3.70;;;1.83;;
56363;SDS011;42261;52.094;4.326;2022-08-30T01:50:20;6.85;;;2.00;;
56363;SDS011;42261;52.094;4.326;2022-08-30T01:53:04;2.88;;;1.67;;
56363;SDS011;42261;52.094;4.326;2022-08-30T01:55:50;6.53;;;1.75;;
56363;SDS011;42261;52.094;4.326;2022-08-30T01:58:36;7.35;;;2.35;;
56363;SDS011;42261;52.094;4.326;2022-08-30T02:01:22;4.00;;;1.65;;
56363;SDS011;42261;52.094;4.326;2022-08-30T02:04:08;3.60;;;2.00;;
56363;SDS011;42261;52.094;4.326;2022-08-30T02:06:54;5.35;;;1.85;;
56363;SDS011;42261;52.094;4.326;2022-08-30T02:09:38;3.65;;;2.10;;
56363;SDS011;42261;52.094;4.326;2022-08-30T02:12:23;6.70;;;1.80;;
56363;SDS011;42261;52.094;4.326;2022-08-30T02:15:08;4.68;;;2.22;;
56363;SDS011;42261;52.094;4.326;2022-08-30T02:17:52;4.63;;;2.17;;
56363;SDS011;42261;52.094;4.326;2022-08-30T02:20:38;4.93;;;1.90;;
56363;SDS011;42261;52.094;4.326;2022-08-30T02:23:23;4.15;;;1.90;;
56363;SDS011;42261;52.094;4.326;2022-08-30T02:26:08;4.20;;;2.30;;
56363;SDS011;42261;52.094;4.326;2022-08-30T02:28:52;5.03;;;2.30;;
56363;SDS011;42261;52.094;4.326;2022-08-30T02:31:37;4.22;;;1.98;;
56363;SDS011;42261;52.094;4.326;2022-08-30T02:34:21;3.95;;;2.22;;
56363;SDS011;42261;52.094;4.326;2022-08-30T02:37:07;4.28;;;1.90;;
56363;SDS011;42261;52.094;4.326;2022-08-30T02:39:51;3.60;;;2.08;;
56363;SDS011;42261;52.094;4.326;2022-08-30T02:42:36;4.35;;;2.30;;
56363;SDS011;42261;52.094;4.326;2022-08-30T02:45:20;6.50;;;2.05;;
56363;SDS011;42261;52.094;4.326;2022-08-30T02:48:04;7.00;;;3.10;;
56363;SDS011;42261;52.094;4.326;2022-08-30T02:50:49;4.05;;;2.30;;
56363;SDS011;42261;52.094;4.326;2022-08-30T02:53:34;7.35;;;2.90;;
56363;SDS011;42261;52.094;4.326;2022-08-30T02:56:19;6.97;;;2.70;;
56363;SDS011;42261;52.094;4.326;2022-08-30T02:59:04;3.05;;;2.20;;
56363;SDS011;42261;52.094;4.326;2022-08-30T03:01:48;3.10;;;2.10;;
56363;SDS011;42261;52.094;4.326;2022-08-30T03:04:32;5.20;;;2.35;;
56363;SDS011;42261;52.094;4.326;2022-08-30T03:07:16;4.70;;;2.47;;
56363;SDS011;42261;52.094;4.326;2022-08-30T03:10:00;4.18;;;2.50;;
56363;SDS011;42261;52.094;4.326;2022-08-30T03:12:45;6.55;;;2.50;;
56363;SDS011;42261;52.094;4.326;2022-08-30T03:15:30;3.83;;;2.58;;
56363;SDS011;42261;52.094;4.326;2022-08-30T03:18:15;4.90;;;2.55;;
56363;SDS011;42261;52.094;4.326;2022-08-30T03:21:00;5.65;;;2.38;;
56363;SDS011;42261;52.094;4.326;2022-08-30T03:23:45;5.25;;;3.05;;
56363;SDS011;42261;52.094;4.326;2022-08-30T03:26:29;4.32;;;2.63;;
56363;SDS011;42261;52.094;4.326;2022-08-30T03:29:14;4.85;;;3.15;;
56363;SDS011;42261;52.094;4.326;2022-08-30T03:31:58;5.22;;;2.92;;
56363;SDS011;42261;52.094;4.326;2022-08-30T03:34:43;9.07;;;3.13;;
56363;SDS011;42261;52.094;4.326;2022-08-30T03:37:27;7.97;;;3.20;;
56363;SDS011;42261;52.094;4.326;2022-08-30T03:40:13;4.82;;;3.33;;
56363;SDS011;42261;52.094;4.326;2022-08-30T03:45:45;7.63;;;3.45;;
56363;SDS011;42261;52.094;4.326;2022-08-30T03:48:30;4.88;;;2.97;;
56363;SDS011;42261;52.094;4.326;2022-08-30T03:51:14;4.70;;;3.10;;
56363;SDS011;42261;52.094;4.326;2022-08-30T03:53:59;6.40;;;3.15;;
56363;SDS011;42261;52.094;4.326;2022-08-30T03:56:43;4.10;;;2.90;;
56363;SDS011;42261;52.094;4.326;2022-08-30T03:59:28;4.40;;;3.33;;
56363;SDS011;42261;52.094;4.326;2022-08-30T04:02:12;6.00;;;3.60;;
56363;SDS011;42261;52.094;4.326;2022-08-30T04:04:56;7.85;;;3.33;;
56363;SDS011;42261;52.094;4.326;2022-08-30T04:07:40;5.00;;;3.40;;
56363;SDS011;42261;52.094;4.326;2022-08-30T04:10:25;4.05;;;3.15;;
56363;SDS011;42261;52.094;4.326;2022-08-30T04:13:12;5.05;;;3.30;;
56363;SDS011;42261;52.094;4.326;2022-08-30T04:15:57;6.85;;;3.53;;
56363;SDS011;42261;52.094;4.326;2022-08-30T04:18:43;6.00;;;3.53;;
56363;SDS011;42261;52.094;4.326;2022-08-30T04:21:30;6.90;;;4.00;;
56363;SDS011;42261;52.094;4.326;2022-08-30T04:24:15;4.85;;;3.53;;
56363;SDS011;42261;52.094;4.326;2022-08-30T04:26:59;5.28;;;3.80;;
56363;SDS011;42261;52.094;4.326;2022-08-30T04:29:43;4.32;;;3.65;;
56363;SDS011;42261;52.094;4.326;2022-08-30T04:32:27;8.82;;;4.03;;
56363;SDS011;42261;52.094;4.326;2022-08-30T04:35:14;9.38;;;4.05;;
56363;SDS011;42261;52.094;4.326;2022-08-30T04:37:58;6.57;;;3.97;;
56363;SDS011;42261;52.094;4.326;2022-08-30T04:40:43;6.70;;;3.55;;
56363;SDS011;42261;52.094;4.326;2022-08-30T04:43:30;6.97;;;4.40;;
56363;SDS011;42261;52.094;4.326;2022-08-30T04:46:15;7.65;;;4.07;;
56363;SDS011;42261;52.094;4.326;2022-08-30T04:48:59;6.78;;;4.40;;
56363;SDS011;42261;52.094;4.326;2022-08-30T04:51:44;4.97;;;4.20;;
56363;SDS011;42261;52.094;4.326;2022-08-30T04:54:28;5.43;;;3.83;;
56363;SDS011;42261;52.094;4.326;2022-08-30T04:57:15;8.45;;;4.38;;
56363;SDS011;42261;52.094;4.326;2022-08-30T04:59:59;6.25;;;3.83;;
56363;SDS011;42261;52.094;4.326;2022-08-30T05:02:43;5.57;;;3.85;;
56363;SDS011;42261;52.094;4.326;2022-08-30T05:05:29;7.28;;;3.75;;
56363;SDS011;42261;52.094;4.326;2022-08-30T05:08:22;4.90;;;3.47;;
56363;SDS011;42261;52.094;4.326;2022-08-30T05:11:07;4.88;;;3.38;;
56363;SDS011;42261;52.094;4.326;2022-08-30T05:13:52;5.68;;;3.47;;
56363;SDS011;42261;52.094;4.326;2022-08-30T05:16:36;7.95;;;3.78;;
56363;SDS011;42261;52.094;4.326;2022-08-30T05:19:21;7.07;;;4.35;;
56363;SDS011;42261;52.094;4.326;2022-08-30T05:22:07;6.03;;;4.13;;
56363;SDS011;42261;52.094;4.326;2022-08-30T05:24:51;6.30;;;3.53;;
56363;SDS011;42261;52.094;4.326;2022-08-30T05:27:36;5.38;;;3.97;;
56363;SDS011;42261;52.094;4.326;2022-08-30T05:30:22;8.52;;;3.80;;
56363;SDS011;42261;52.094;4.326;2022-08-30T05:33:07;7.20;;;4.30;;
56363;SDS011;42261;52.094;4.326;2022-08-30T05:35:51;6.40;;;4.38;;
56363;SDS011;42261;52.094;4.326;2022-08-30T05:38:36;7.18;;;4.30;;
56363;SDS011;42261;52.094;4.326;2022-08-30T05:41:21;7.32;;;3.58;;
56363;SDS011;42261;52.094;4.326;2022-08-30T05:44:07;5.28;;;3.10;;
56363;SDS011;42261;52.094;4.326;2022-08-30T05:46:53;11.65;;;4.50;;
56363;SDS011;42261;52.094;4.326;2022-08-30T05:49:37;8.68;;;3.58;;
56363;SDS011;42261;52.094;4.326;2022-08-30T05:52:21;8.65;;;4.30;;
56363;SDS011;42261;52.094;4.326;2022-08-30T05:55:06;7.00;;;4.60;;
56363;SDS011;42261;52.094;4.326;2022-08-30T05:57:52;7.53;;;4.40;;
56363;SDS011;42261;52.094;4.326;2022-08-30T06:00:38;6.55;;;4.43;;
56363;SDS011;42261;52.094;4.326;2022-08-30T06:03:22;6.05;;;4.32;;
56363;SDS011;42261;52.094;4.326;2022-08-30T06:06:06;7.75;;;5.25;;
56363;SDS011;42261;52.094;4.326;2022-08-30T06:08:52;9.02;;;4.28;;
56363;SDS011;42261;52.094;4.326;2022-08-30T06:11:36;7.20;;;4.65;;
56363;SDS011;42261;52.094;4.326;2022-08-30T06:14:21;8.35;;;4.60;;
56363;SDS011;42261;52.094;4.326;2022-08-30T06:17:05;10.40;;;4.97;;
56363;SDS011;42261;52.094;4.326;2022-08-30T06:19:50;8.98;;;4.60;;
56363;SDS011;42261;52.094;4.326;2022-08-30T06:22:33;8.77;;;3.88;;
56363;SDS011;42261;52.094;4.326;2022-08-30T06:25:18;6.72;;;4.40;;
56363;SDS011;42261;52.094;4.326;2022-08-30T06:28:04;6.07;;;4.30;;
56363;SDS011;42261;52.094;4.326;2022-08-30T06:30:49;10.30;;;4.55;;
56363;SDS011;42261;52.094;4.326;2022-08-30T06:33:34;6.20;;;3.67;;
56363;SDS011;42261;52.094;4.326;2022-08-30T06:36:20;6.47;;;3.70;;
56363;SDS011;42261;52.094;4.326;2022-08-30T06:41:52;10.52;;;3.70;;
56363;SDS011;42261;52.094;4.326;2022-08-30T06:44:37;8.40;;;3.40;;
56363;SDS011;42261;52.094;4.326;2022-08-30T06:47:23;7.60;;;3.80;;
56363;SDS011;42261;52.094;4.326;2022-08-30T06:50:08;7.35;;;3.28;;
56363;SDS011;42261;52.094;4.326;2022-08-30T06:52:52;10.45;;;3.22;;
56363;SDS011;42261;52.094;4.326;2022-08-30T06:55:38;11.38;;;3.30;;
56363;SDS011;42261;52.094;4.326;2022-08-30T06:58:22;3.63;;;2.50;;
56363;SDS011;42261;52.094;4.326;2022-08-30T07:01:07;6.63;;;2.80;;
56363;SDS011;42261;52.094;4.326;2022-08-30T07:03:55;8.75;;;3.28;;
56363;SDS011;42261;52.094;4.326;2022-08-30T07:06:40;8.98;;;3.38;;
56363;SDS011;42261;52.094;4.326;2022-08-30T07:09:24;11.80;;;3.03;;
56363;SDS011;42261;52.094;4.326;2022-08-30T07:12:09;36.17;;;4.55;;
56363;SDS011;42261;52.094;4.326;2022-08-30T07:14:55;20.17;;;4.28;;
56363;SDS011;42261;52.094;4.326;2022-08-30T07:17:40;9.25;;;2.80;;
56363;SDS011;42261;52.094;4.326;2022-08-30T07:20:43;3.85;;;2.70;;
56363;SDS011;42261;52.094;4.326;2022-08-30T07:23:27;5.53;;;2.53;;
56363;SDS011;42261;52.094;4.326;2022-08-30T07:26:12;4.80;;;2.28;;
56363;SDS011;42261;52.094;4.326;2022-08-30T07:28:57;6.30;;;2.33;;
56363;SDS011;42261;52.094;4.326;2022-08-30T07:31:46;9.75;;;3.05;;
56363;SDS011;42261;52.094;4.326;2022-08-30T07:34:30;22.52;;;4.47;;
56363;SDS011;42261;52.094;4.326;2022-08-30T07:37:14;8.90;;;2.30;;
56363;SDS011;42261;52.094;4.326;2022-08-30T07:39:59;3.92;;;1.90;;
56363;SDS011;42261;52.094;4.326;2022-08-30T07:42:43;5.35;;;1.80;;
56363;SDS011;42261;52.094;4.326;2022-08-30T07:45:28;3.95;;;1.30;;
56363;SDS011;42261;52.094;4.326;2022-08-30T07:48:12;3.67;;;1.35;;
56363;SDS011;42261;52.094;4.326;2022-08-30T07:50:57;3.15;;;1.40;;
56363;SDS011;42261;52.094;4.326;2022-08-30T07:53:42;3.92;;;1.40;;
56363;SDS011;42261;52.094;4.326;2022-08-30T07:56:26;3.75;;;1.20;;
56363;SDS011;42261;52.094;4.326;2022-08-30T07:59:10;5.40;;;1.20;;
56363;SDS011;42261;52.094;4.326;2022-08-30T08:01:54;7.43;;;1.42;;
56363;SDS011;42261;52.094;4.326;2022-08-30T08:04:38;5.22;;;1.80;;
56363;SDS011;42261;52.094;4.326;2022-08-30T08:07:23;8.55;;;1.70;;
56363;SDS011;42261;52.094;4.326;2022-08-30T08:10:08;3.00;;;1.30;;
56363;SDS011;42261;52.094;4.326;2022-08-30T08:12:52;3.55;;;1.50;;
56363;SDS011;42261;52.094;4.326;2022-08-30T08:15:37;13.43;;;1.67;;
56363;SDS011;42261;52.094;4.326;2022-08-30T08:18:21;2.15;;;1.30;;
56363;SDS011;42261;52.094;4.326;2022-08-30T08:21:06;4.03;;;1.23;;
56363;SDS011;42261;52.094;4.326;2022-08-30T08:23:53;4.38;;;1.42;;
56363;SDS011;42261;52.094;4.326;2022-08-30T08:26:38;3.25;;;1.00;;
56363;SDS011;42261;52.094;4.326;2022-08-30T08:29:22;3.22;;;1.10;;
56363;SDS011;42261;52.094;4.326;2022-08-30T08:32:09;5.85;;;1.15;;
56363;SDS011;42261;52.094;4.326;2022-08-30T08:34:53;2.70;;;1.10;;
56363;SDS011;42261;52.094;4.326;2022-08-30T08:37:38;4.68;;;1.15;;
56363;SDS011;42261;52.094;4.326;2022-08-30T08:40:23;2.50;;;1.38;;
56363;SDS011;42261;52.094;4.326;2022-08-30T08:43:13;9.68;;;1.80;;
56363;SDS011;42261;52.094;4.326;2022-08-30T08:46:01;1.67;;;0.93;;
56363;SDS011;42261;52.094;4.326;2022-08-30T08:48:49;17.17;;;2.60;;
56363;SDS011;42261;52.094;4.326;2022-08-30T08:51:37;5.18;;;0.90;;
56363;SDS011;42261;52.094;4.326;2022-08-30T08:54:45;4.20;;;0.93;;
56363;SDS011;42261;52.094;4.326;2022-08-30T08:57:36;2.65;;;0.70;;
56363;SDS011;42261;52.094;4.326;2022-08-30T09:00:20;1.65;;;0.80;;
56363;SDS011;42261;52.094;4.326;2022-08-30T09:03:05;2.10;;;0.80;;
56363;SDS011;42261;52.094;4.326;2022-08-30T09:05:53;1.75;;;0.88;;
56363;SDS011;42261;52.094;4.326;2022-08-30T09:08:39;8.05;;;1.60;;
56363;SDS011;42261;52.094;4.326;2022-08-30T09:11:24;3.00;;;1.00;;
56363;SDS011;42261;52.094;4.326;2022-08-30T09:14:16;1.58;;;0.98;;
56363;SDS011;42261;52.094;4.326;2022-08-30T09:17:07;4.07;;;0.90;;
56363;SDS011;42261;52.094;4.326;2022-08-30T09:19:56;4.03;;;1.20;;
56363;SDS011;42261;52.094;4.326;2022-08-30T09:22:42;1.42;;;0.70;;
56363;SDS011;42261;52.094;4.326;2022-08-30T09:25:29;4.40;;;1.10;;
56363;SDS011;42261;52.094;4.326;2022-08-30T09:28:15;2.50;;;1.45;;
56363;SDS011;42261;52.094;4.326;2022-08-30T09:31:06;6.55;;;1.30;;
56363;SDS011;42261;52.094;4.326;2022-08-30T09:34:00;1.88;;;0.90;;
56363;SDS011;42261;52.094;4.326;2022-08-30T09:36:47;3.67;;;1.10;;
56363;SDS011;42261;52.094;4.326;2022-08-30T09:39:34;2.35;;;1.05;;
56363;SDS011;42261;52.094;4.326;2022-08-30T09:42:24;4.13;;;0.75;;
56363;SDS011;42261;52.094;4.326;2022-08-30T09:45:20;1.80;;;0.88;;
56363;SDS011;42261;52.094;4.326;2022-08-30T09:48:26;3.08;;;0.75;;
56363;SDS011;42261;52.094;4.326;2022-08-30T09:57:08;1.17;;;0.73;;
56363;SDS011;42261;52.094;4.326;2022-08-30T10:00:19;2.97;;;0.95;;
56363;SDS011;42261;52.094;4.326;2022-08-30T10:03:14;2.92;;;0.80;;
56363;SDS011;42261;52.094;4.326;2022-08-30T10:06:17;2.42;;;0.68;;
56363;SDS011;42261;52.094;4.326;2022-08-30T10:12:08;0.90;;;0.52;;
56363;SDS011;42261;52.094;4.326;2022-08-30T10:18:25;4.00;;;0.80;;
56363;SDS011;42261;52.094;4.326;2022-08-30T10:21:24;1.52;;;0.80;;
56363;SDS011;42261;52.094;4.326;2022-08-30T10:24:11;2.13;;;0.80;;
56363;SDS011;42261;52.094;4.326;2022-08-30T10:29:52;1.90;;;0.90;;
56363;SDS011;42261;52.094;4.326;2022-08-30T10:35:49;3.97;;;0.63;;
56363;SDS011;42261;52.094;4.326;2022-08-30T10:38:41;9.13;;;1.17;;
56363;SDS011;42261;52.094;4.326;2022-08-30T10:41:40;2.35;;;0.85;;
56363;SDS011;42261;52.094;4.326;2022-08-30T10:44:33;3.80;;;0.88;;
56363;SDS011;42261;52.094;4.326;2022-08-30T10:50:28;2.78;;;1.00;;
56363;SDS011;42261;52.094;4.326;2022-08-30T10:56:27;2.15;;;1.00;;
56363;SDS011;42261;52.094;4.326;2022-08-30T10:59:15;2.25;;;0.80;;
56363;SDS011;42261;52.094;4.326;2022-08-30T11:05:05;2.67;;;0.90;;
56363;SDS011;42261;52.094;4.326;2022-08-30T11:08:06;4.65;;;1.15;;
56363;SDS011;42261;52.094;4.326;2022-08-30T11:14:17;3.70;;;1.08;;
56363;SDS011;42261;52.094;4.326;2022-08-30T11:17:02;3.60;;;0.70;;
56363;SDS011;42261;52.094;4.326;2022-08-30T11:19:47;2.47;;;0.68;;
56363;SDS011;42261;52.094;4.326;2022-08-30T11:22:32;3.05;;;0.88;;
56363;SDS011;42261;52.094;4.326;2022-08-30T11:34:07;0.95;;;0.70;;
56363;SDS011;42261;52.094;4.326;2022-08-30T11:42:29;5.22;;;1.40;;
56363;SDS011;42261;52.094;4.326;2022-08-30T11:48:36;2.78;;;0.90;;
56363;SDS011;42261;52.094;4.326;2022-08-30T11:51:31;3.00;;;0.82;;
56363;SDS011;42261;52.094;4.326;2022-08-30T12:00:42;1.55;;;0.80;;
56363;SDS011;42261;52.094;4.326;2022-08-30T12:03:31;2.65;;;0.98;;
56363;SDS011;42261;52.094;4.326;2022-08-30T12:06:41;3.55;;;0.93;;
56363;SDS011;42261;52.094;4.326;2022-08-30T12:12:07;1.67;;;0.85;;
56363;SDS011;42261;52.094;4.326;2022-08-30T12:14:54;2.38;;;0.80;;
56363;SDS011;42261;52.094;4.326;2022-08-30T12:20:47;1.98;;;0.73;;
56363;SDS011;42261;52.094;4.326;2022-08-30T12:23:38;0.95;;;0.57;;
56363;SDS011;42261;52.094;4.326;2022-08-30T12:29:19;2.90;;;0.63;;
56363;SDS011;42261;52.094;4.326;2022-08-30T12:32:14;1.80;;;0.80;;
56363;SDS011;42261;52.094;4.326;2022-08-30T12:35:03;4.18;;;0.88;;
56363;SDS011;42261;52.094;4.326;2022-08-30T12:37:57;4.35;;;0.63;;
56363;SDS011;42261;52.094;4.326;2022-08-30T12:41:02;2.05;;;0.60;;
56363;SDS011;42261;52.094;4.326;2022-08-30T12:43:47;2.75;;;0.77;;
56363;SDS011;42261;52.094;4.326;2022-08-30T12:46:34;1.52;;;0.68;;
56363;SDS011;42261;52.094;4.326;2022-08-30T12:49:18;1.30;;;0.57;;
56363;SDS011;42261;52.094;4.326;2022-08-30T12:55:14;1.17;;;0.50;;
56363;SDS011;42261;52.094;4.326;2022-08-30T12:58:03;1.10;;;0.60;;
56363;SDS011;42261;52.094;4.326;2022-08-30T13:00:50;0.82;;;0.60;;
56363;SDS011;42261;52.094;4.326;2022-08-30T13:03:36;3.75;;;0.55;;
56363;SDS011;42261;52.094;4.326;2022-08-30T13:06:40;1.42;;;0.77;;
56363;SDS011;42261;52.094;4.326;2022-08-30T13:09:36;2.40;;;0.68;;
56363;SDS011;42261;52.094;4.326;2022-08-30T13:12:23;1.83;;;0.63;;
56363;SDS011;42261;52.094;4.326;2022-08-30T13:15:09;2.38;;;0.73;;
56363;SDS011;42261;52.094;4.326;2022-08-30T13:21:20;3.17;;;0.88;;
56363;SDS011;42261;52.094;4.326;2022-08-30T13:24:15;1.92;;;0.65;;
56363;SDS011;42261;52.094;4.326;2022-08-30T13:27:01;2.13;;;0.75;;
56363;SDS011;42261;52.094;4.326;2022-08-30T13:29:49;1.15;;;0.70;;
56363;SDS011;42261;52.094;4.326;2022-08-30T13:32:33;3.38;;;0.70;;
56363;SDS011;42261;52.094;4.326;2022-08-30T13:35:20;2.75;;;0.68;;
56363;SDS011;42261;52.094;4.326;2022-08-30T13:38:05;3.28;;;0.93;;
56363;SDS011;42261;52.094;4.326;2022-08-30T13:40:49;1.17;;;0.70;;
56363;SDS011;42261;52.094;4.326;2022-08-30T13:43:34;1.95;;;0.80;;
56363;SDS011;42261;52.094;4.326;2022-08-30T13:46:20;3.95;;;1.00;;
56363;SDS011;42261;52.094;4.326;2022-08-30T13:49:11;3.13;;;0.82;;
56363;SDS011;42261;52.094;4.326;2022-08-30T13:52:04;5.07;;;1.00;;
56363;SDS011;42261;52.094;4.326;2022-08-30T13:54:51;6.95;;;1.10;;
56363;SDS011;42261;52.094;4.326;2022-08-30T13:57:36;1.17;;;0.60;;
56363;SDS011;42261;52.094;4.326;2022-08-30T14:00:21;1.77;;;0.75;;
56363;SDS011;42261;52.094;4.326;2022-08-30T14:03:08;1.67;;;0.60;;
56363;SDS011;42261;52.094;4.326;2022-08-30T14:05:52;1.88;;;1.02;;
56363;SDS011;42261;52.094;4.326;2022-08-30T14:08:36;7.18;;;1.30;;
56363;SDS011;42261;52.094;4.326;2022-08-30T14:11:22;4.00;;;1.02;;
56363;SDS011;42261;52.094;4.326;2022-08-30T14:14:07;2.03;;;1.02;;
56363;SDS011;42261;52.094;4.326;2022-08-30T14:16:51;2.78;;;0.90;;
56363;SDS011;42261;52.094;4.326;2022-08-30T14:19:36;4.32;;;1.08;;
56363;SDS011;42261;52.094;4.326;2022-08-30T14:22:20;6.45;;;1.30;;
56363;SDS011;42261;52.094;4.326;2022-08-30T14:25:06;4.78;;;1.10;;
56363;SDS011;42261;52.094;4.326;2022-08-30T14:27:51;1.77;;;0.90;;
56363;SDS011;42261;52.094;4.326;2022-08-30T14:30:36;5.25;;;1.25;;
56363;SDS011;42261;52.094;4.326;2022-08-30T14:33:22;3.42;;;0.90;;
56363;SDS011;42261;52.094;4.326;2022-08-30T14:36:07;2.05;;;0.88;;
56363;SDS011;42261;52.094;4.326;2022-08-30T14:38:51;2.00;;;0.80;;
56363;SDS011;42261;52.094;4.326;2022-08-30T14:41:40;5.18;;;1.08;;
56363;SDS011;42261;52.094;4.326;2022-08-30T14:44:26;2.58;;;0.88;;
56363;SDS011;42261;52.094;4.326;2022-08-30T14:47:10;15.15;;;1.25;;
56363;SDS011;42261;52.094;4.326;2022-08-30T14:49:54;1.25;;;0.70;;
56363;SDS011;42261;52.094;4.326;2022-08-30T14:52:42;1.50;;;1.00;;
56363;SDS011;42261;52.094;4.326;2022-08-30T14:55:27;2.25;;;0.80;;
56363;SDS011;42261;52.094;4.326;2022-08-30T14:58:15;2.65;;;0.85;;
56363;SDS011;42261;52.094;4.326;2022-08-30T15:01:05;3.22;;;0.88;;
56363;SDS011;42261;52.094;4.326;2022-08-30T15:03:52;1.45;;;0.75;;
56363;SDS011;42261;52.094;4.326;2022-08-30T15:06:40;3.17;;;1.00;;
56363;SDS011;42261;52.094;4.326;2022-08-30T15:09:26;1.30;;;0.80;;
56363;SDS011;42261;52.094;4.326;2022-08-30T15:12:12;2.00;;;1.00;;
56363;SDS011;42261;52.094;4.326;2022-08-30T15:14:58;1.08;;;0.75;;
56363;SDS011;42261;52.094;4.326;2022-08-30T15:17:42;2.47;;;1.00;;
56363;SDS011;42261;52.094;4.326;2022-08-30T15:20:28;2.08;;;0.70;;
56363;SDS011;42261;52.094;4.326;2022-08-30T15:23:15;1.10;;;0.80;;
56363;SDS011;42261;52.094;4.326;2022-08-30T15:26:03;2.67;;;0.90;;
56363;SDS011;42261;52.094;4.326;2022-08-30T15:28:48;2.53;;;0.63;;
56363;SDS011;42261;52.094;4.326;2022-08-30T15:31:34;1.65;;;0.70;;
56363;SDS011;42261;52.094;4.326;2022-08-30T15:34:20;2.08;;;0.70;;
56363;SDS011;42261;52.094;4.326;2022-08-30T15:37:06;1.92;;;0.73;;
56363;SDS011;42261;52.094;4.326;2022-08-30T15:39:50;1.48;;;0.88;;
56363;SDS011;42261;52.094;4.326;2022-08-30T15:42:35;3.20;;;0.88;;
56363;SDS011;42261;52.094;4.326;2022-08-30T15:45:20;5.07;;;0.70;;
56363;SDS011;42261;52.094;4.326;2022-08-30T15:48:04;1.45;;;0.80;;
56363;SDS011;42261;52.094;4.326;2022-08-30T15:50:55;2.13;;;0.70;;
56363;SDS011;42261;52.094;4.326;2022-08-30T15:53:43;1.20;;;0.63;;
56363;SDS011;42261;52.094;4.326;2022-08-30T15:56:29;1.88;;;0.70;;
56363;SDS011;42261;52.094;4.326;2022-08-30T15:59:13;2.35;;;0.70;;
56363;SDS011;42261;52.094;4.326;2022-08-30T16:01:58;1.00;;;0.60;;
56363;SDS011;42261;52.094;4.326;2022-08-30T16:04:43;2.30;;;0.70;;
56363;SDS011;42261;52.094;4.326;2022-08-30T16:07:28;0.80;;;0.68;;
56363;SDS011;42261;52.094;4.326;2022-08-30T16:10:13;1.23;;;0.75;;
56363;SDS011;42261;52.094;4.326;2022-08-30T16:12:59;1.48;;;0.68;;
56363;SDS011;42261;52.094;4.326;2022-08-30T16:15:44;1.90;;;0.70;;
56363;SDS011;42261;52.094;4.326;2022-08-30T16:18:29;1.38;;;0.70;;
56363;SDS011;42261;52.094;4.326;2022-08-30T16:21:15;2.65;;;0.60;;
56363;SDS011;42261;52.094;4.326;2022-08-30T16:24:05;1.58;;;0.73;;
56363;SDS011;42261;52.094;4.326;2022-08-30T16:26:50;1.65;;;0.70;;
56363;SDS011;42261;52.094;4.326;2022-08-30T16:29:35;2.40;;;0.98;;
56363;SDS011;42261;52.094;4.326;2022-08-30T16:32:18;1.10;;;0.60;;
56363;SDS011;42261;52.094;4.326;2022-08-30T16:35:02;2.20;;;0.90;;
56363;SDS011;42261;52.094;4.326;2022-08-30T16:37:48;1.48;;;0.73;;
56363;SDS011;42261;52.094;4.326;2022-08-30T16:40:33;1.50;;;0.70;;
56363;SDS011;42261;52.094;4.326;2022-08-30T16:43:18;2.90;;;0.60;;
56363;SDS011;42261;52.094;4.326;2022-08-30T16:46:03;1.70;;;0.63;;
56363;SDS011;42261;52.094;4.326;2022-08-30T16:48:49;2.10;;;0.70;;
56363;SDS011;42261;52.094;4.326;2022-08-30T16:51:34;2.25;;;0.70;;
56363;SDS011;42261;52.094;4.326;2022-08-30T16:54:20;1.58;;;0.73;;
56363;SDS011;42261;52.094;4.326;2022-08-30T16:57:05;1.20;;;0.70;;
56363;SDS011;42261;52.094;4.326;2022-08-30T16:59:50;2.50;;;1.00;;
56363;SDS011;42261;52.094;4.326;2022-08-30T17:02:34;1.80;;;0.70;;
56363;SDS011;42261;52.094;4.326;2022-08-30T17:05:20;3.13;;;0.60;;
56363;SDS011;42261;52.094;4.326;2022-08-30T17:08:06;1.80;;;0.70;;
56363;SDS011;42261;52.094;4.326;2022-08-30T17:10:50;1.15;;;0.50;;
56363;SDS011;42261;52.094;4.326;2022-08-30T17:13:36;1.05;;;0.60;;
56363;SDS011;42261;52.094;4.326;2022-08-30T17:16:20;1.65;;;0.70;;
56363;SDS011;42261;52.094;4.326;2022-08-30T17:19:05;1.80;;;0.80;;
56363;SDS011;42261;52.094;4.326;2022-08-30T17:21:49;1.88;;;0.50;;
56363;SDS011;42261;52.094;4.326;2022-08-30T17:24:34;1.90;;;0.63;;
56363;SDS011;42261;52.094;4.326;2022-08-30T17:27:18;1.67;;;0.70;;
56363;SDS011;42261;52.094;4.326;2022-08-30T17:30:04;2.20;;;0.70;;
56363;SDS011;42261;52.094;4.326;2022-08-30T17:32:48;1.30;;;0.82;;
56363;SDS011;42261;52.094;4.326;2022-08-30T17:35:34;1.13;;;0.50;;
56363;SDS011;42261;52.094;4.326;2022-08-30T17:38:18;1.15;;;0.60;;
56363;SDS011;42261;52.094;4.326;2022-08-30T17:41:06;1.42;;;0.50;;
56363;SDS011;42261;52.094;4.326;2022-08-30T17:43:51;2.38;;;0.63;;
56363;SDS011;42261;52.094;4.326;2022-08-30T17:46:35;1.58;;;0.60;;
56363;SDS011;42261;52.094;4.326;2022-08-30T17:49:22;1.08;;;0.57;;
56363;SDS011;42261;52.094;4.326;2022-08-30T17:52:07;5.25;;;0.60;;
56363;SDS011;42261;52.094;4.326;2022-08-30T17:54:52;3.10;;;0.60;;
56363;SDS011;42261;52.094;4.326;2022-08-30T17:57:37;3.35;;;0.57;;
56363;SDS011;42261;52.094;4.326;2022-08-30T18:00:24;2.92;;;0.60;;
56363;SDS011;42261;52.094;4.326;2022-08-30T18:03:09;0.82;;;0.50;;